Time;durP1;ratioP1;P1;durP2;ratioP2;P2;SDS_P1;SDS_P2;PMS_P1;PMS_P2;Temp;Humidity;BMP_temperature;BMP_pressure;BME280_temperature;BME280_humidity;BME280_pressure;Samples;Min_cycle;Max_cycle;Signal;HPM_P1;HPM_P2
2022/07/07 00:03:38;;;;;;;1.38;0.50;;;;;;;15.80;48.91;100408.47;10523809;28;20040;-67
2022/07/07 00:08:39;;;;;;;2.35;0.52;;;;;;;15.70;49.36;100410.72;10541841;28;20044;-68
2022/07/07 00:13:41;;;;;;;2.13;0.45;;;;;;;15.53;50.25;100407.94;10541355;28;20035;-68
2022/07/07 00:18:44;;;;;;;2.00;0.40;;;;;;;15.57;49.80;100402.44;10541028;28;20058;-67
2022/07/07 00:23:45;;;;;;;1.17;0.30;;;;;;;15.35;50.55;100396.41;10505509;28;20115;-67
2022/07/07 00:28:48;;;;;;;1.70;0.50;;;;;;;15.47;50.34;100390.56;10540716;28;20043;-68
2022/07/07 00:33:53;;;;;;;4.22;0.45;;;;;;;15.43;50.61;100390.78;10540357;28;20400;-69
2022/07/07 00:38:55;;;;;;;6.25;0.50;;;;;;;15.29;51.05;100386.97;10522968;28;20374;-67
2022/07/07 00:43:56;;;;;;;3.10;0.60;;;;;;;15.23;51.11;100374.00;10522676;28;20424;-67
2022/07/07 00:48:58;;;;;;;3.30;0.63;;;;;;;15.10;51.34;100378.16;10539684;28;20408;-68
2022/07/07 00:54:00;;;;;;;1.88;0.60;;;;;;;15.24;51.21;100372.22;10540095;28;20527;-67
2022/07/07 00:59:06;;;;;;;3.15;0.90;;;;;;;15.10;51.65;100370.19;10539422;28;20131;-69
2022/07/07 01:04:12;;;;;;;1.67;0.50;;;;;;;15.07;51.75;100370.34;10539530;28;20440;-69
2022/07/07 01:09:14;;;;;;;2.70;0.50;;;;;;;15.05;51.78;100367.75;10542640;28;20115;-69
2022/07/07 01:14:16;;;;;;;1.48;0.50;;;;;;;14.96;52.35;100370.78;10548277;28;20039;-68
2022/07/07 01:19:20;;;;;;;1.85;0.50;;;;;;;14.78;52.68;100366.31;10547443;28;20047;-68
2022/07/07 01:24:24;;;;;;;1.35;0.50;;;;;;;14.65;53.06;100358.06;10547340;28;20114;-68
2022/07/07 01:29:26;;;;;;;1.77;0.60;;;;;;;14.57;53.30;100350.47;10547132;28;20040;-69
2022/07/07 01:34:28;;;;;;;2.95;0.60;;;;;;;14.43;53.68;100350.13;10529113;28;20044;-69
2022/07/07 01:39:29;;;;;;;1.73;0.50;;;;;;;14.43;53.82;100351.94;10528753;28;20048;-69
2022/07/07 01:44:32;;;;;;;2.40;0.60;;;;;;;14.48;53.74;100342.03;10546826;28;20052;-69
2022/07/07 01:49:35;;;;;;;1.65;0.77;;;;;;;14.32;53.87;100339.16;10546341;28;20477;-68
2022/07/07 01:54:37;;;;;;;2.50;0.60;;;;;;;14.26;54.14;100336.81;10548783;28;20036;-68
2022/07/07 01:59:39;;;;;;;2.95;0.70;;;;;;;14.35;54.06;100336.41;10547413;28;20493;-68
2022/07/07 02:04:41;;;;;;;0.70;0.47;;;;;;;14.46;53.55;100336.78;10528992;28;20044;-68
2022/07/07 02:09:43;;;;;;;1.85;0.45;;;;;;;14.54;53.29;100326.78;10548183;28;20055;-68
2022/07/07 02:14:45;;;;;;;1.08;0.60;;;;;;;14.44;55.46;100320.16;10528760;28;20131;-68
2022/07/07 02:19:47;;;;;;;2.38;0.50;;;;;;;14.53;53.75;100325.06;10545320;28;20555;-68
2022/07/07 02:24:48;;;;;;;2.58;0.60;;;;;;;14.59;53.78;100322.16;10546286;28;20097;-68
2022/07/07 02:29:50;;;;;;;1.60;0.52;;;;;;;14.49;54.46;100320.84;10527888;28;20040;-69
2022/07/07 02:34:51;;;;;;;1.63;0.40;;;;;;;14.38;54.93;100321.25;10545623;28;20042;-68
2022/07/07 02:39:53;;;;;;;2.15;0.68;;;;;;;14.64;54.36;100319.28;10545887;28;20048;-68
2022/07/07 02:44:55;;;;;;;2.80;0.68;;;;;;;14.43;54.93;100309.59;10545317;28;20036;-68
2022/07/07 02:49:57;;;;;;;1.40;0.60;;;;;;;14.46;55.86;100315.63;10545823;28;20076;-68
2022/07/07 02:54:59;;;;;;;2.72;0.70;;;;;;;14.46;55.38;100307.69;10545356;28;20040;-68
2022/07/07 03:00:00;;;;;;;2.90;0.90;;;;;;;14.53;56.21;100305.69;10545173;28;20050;-68
2022/07/07 03:05:02;;;;;;;4.50;1.05;;;;;;;14.72;55.11;100297.78;10545519;28;20044;-68
2022/07/07 03:10:06;;;;;;;2.28;1.42;;;;;;;14.93;54.25;100296.84;10526353;28;20090;-68
2022/07/07 03:15:08;;;;;;;5.43;1.70;;;;;;;14.57;55.26;100296.69;10525789;28;20068;-68
2022/07/07 03:20:13;;;;;;;3.50;1.60;;;;;;;14.57;55.56;100294.91;10543702;28;20054;-68
2022/07/07 03:25:15;;;;;;;2.45;1.17;;;;;;;14.75;55.17;100290.59;10543930;28;20464;-68
2022/07/07 03:30:17;;;;;;;2.22;1.00;;;;;;;14.61;56.48;100298.28;10542823;28;20045;-68
2022/07/07 03:35:18;;;;;;;1.77;0.88;;;;;;;14.52;57.30;100302.19;10542528;28;20485;-69
2022/07/07 03:40:20;;;;;;;3.65;1.00;;;;;;;14.56;58.56;100308.19;10543427;28;20102;-69
2022/07/07 03:45:22;;;;;;;1.52;0.90;;;;;;;14.59;59.42;100300.97;10529298;28;20040;-69
2022/07/07 03:50:24;;;;;;;3.47;0.90;;;;;;;14.68;59.73;100306.78;10543629;28;20117;-69
2022/07/07 03:55:26;;;;;;;2.10;0.90;;;;;;;14.98;60.35;100318.66;10542604;28;20050;-69
2022/07/07 04:00:33;;;;;;;1.45;0.70;;;;;;;14.61;61.83;100322.09;10542158;28;20048;-69
2022/07/07 04:05:35;;;;;;;1.60;0.60;;;;;;;14.82;60.45;100321.13;10541990;28;20401;-69
2022/07/07 04:10:37;;;;;;;1.40;0.70;;;;;;;14.50;63.83;100311.97;10542807;28;20036;-69
2022/07/07 04:15:39;;;;;;;1.58;0.80;;;;;;;14.30;65.93;100315.44;10544176;28;20489;-69
2022/07/07 04:20:42;;;;;;;1.15;0.90;;;;;;;14.02;69.00;100318.38;10544146;28;20040;-69
2022/07/07 04:25:44;;;;;;;2.25;0.77;;;;;;;13.77;70.87;100321.19;10544572;28;20040;-68
2022/07/07 04:30:46;;;;;;;3.50;1.05;;;;;;;13.60;75.52;100310.44;10542988;28;20075;-68
2022/07/07 04:35:48;;;;;;;6.90;1.10;;;;;;;13.67;74.41;100303.09;10543789;28;20047;-68
2022/07/07 04:40:50;;;;;;;9.15;1.00;;;;;;;13.61;75.09;100305.06;10541883;28;20081;-68
2022/07/07 04:45:52;;;;;;;2.75;1.20;;;;;;;13.51;76.93;100306.38;10523437;28;20130;-68
2022/07/07 04:50:54;;;;;;;2.22;0.82;;;;;;;13.49;76.83;100305.56;10524049;28;20503;-69
2022/07/07 04:55:56;;;;;;;3.70;1.25;;;;;;;13.40;77.54;100298.00;10540969;28;20115;-69
2022/07/07 05:00:58;;;;;;;2.00;1.05;;;;;;;13.41;78.18;100296.22;10540808;28;20134;-70
2022/07/07 05:06:02;;;;;;;3.67;1.17;;;;;;;13.35;78.87;100294.66;10523251;28;20055;-69
2022/07/07 05:11:05;;;;;;;2.63;0.95;;;;;;;13.35;78.87;100284.13;10524126;28;20405;-69
2022/07/07 05:16:07;;;;;;;1.98;1.02;;;;;;;13.38;79.67;100289.28;10523158;28;20115;-69
2022/07/07 05:21:09;;;;;;;2.15;1.00;;;;;;;13.47;80.46;100290.69;10541433;28;20082;-69
2022/07/07 05:26:12;;;;;;;1.85;1.10;;;;;;;13.43;80.72;100289.97;10522248;28;20119;-69
2022/07/07 05:31:14;;;;;;;2.92;1.48;;;;;;;13.48;80.77;100280.06;10541269;28;20118;-69
2022/07/07 05:36:16;;;;;;;2.28;0.85;;;;;;;13.54;79.63;100287.72;10542653;28;20040;-69
2022/07/07 05:41:19;;;;;;;3.28;1.02;;;;;;;13.68;79.23;100287.22;10524941;28;20555;-70
2022/07/07 05:46:20;;;;;;;3.20;1.23;;;;;;;13.85;77.55;100286.50;10556570;22;20063;-78
2022/07/07 05:51:22;;;;;;;1.70;0.90;;;;;;;13.88;77.79;100281.09;10546958;28;20036;-78
2022/07/07 05:56:24;;;;;;;3.65;1.15;;;;;;;14.18;76.12;100278.09;10531735;28;20051;-80
2022/07/07 06:01:25;;;;;;;2.33;0.85;;;;;;;14.28;75.64;100272.34;10537023;28;20048;-80
2022/07/07 06:06:27;;;;;;;2.72;0.95;;;;;;;14.50;74.65;100261.72;10557831;28;20048;-80
2022/07/07 06:11:28;;;;;;;2.35;0.93;;;;;;;14.48;73.58;100258.28;10558422;28;20044;-80
2022/07/07 06:16:40;;;;;;;1.88;0.80;;;;;;;14.49;74.26;100257.34;10561839;28;20044;-79
2022/07/07 06:21:43;;;;;;;4.43;0.93;;;;;;;14.53;73.80;100248.34;10579953;28;20051;-80
2022/07/07 06:26:44;;;;;;;1.80;1.17;;;;;;;14.75;72.95;100247.41;10549692;28;20044;-82
2022/07/07 06:31:46;;;;;;;3.47;1.10;;;;;;;14.83;73.14;100245.22;10591422;28;20084;-79
2022/07/07 06:36:48;;;;;;;1.75;0.90;;;;;;;15.04;72.43;100240.75;10562656;28;20036;-81
2022/07/07 06:41:49;;;;;;;2.10;1.20;;;;;;;15.15;72.82;100235.81;10539423;28;20036;-80
2022/07/07 06:46:51;;;;;;;2.50;0.95;;;;;;;15.34;71.81;100230.47;10557587;28;20047;-79
2022/07/07 06:51:53;;;;;;;4.43;0.90;;;;;;;15.49;72.72;100234.16;10521281;28;20493;-81
2022/07/07 06:56:55;;;;;;;1.67;0.98;;;;;;;15.49;73.33;100231.53;10558129;28;20058;-80
2022/07/07 07:01:56;;;;;;;3.95;0.88;;;;;;;15.75;70.14;100230.28;10567388;28;20071;-80
2022/07/07 07:06:58;;;;;;;2.25;0.93;;;;;;;15.57;72.89;100226.72;10553506;28;20589;-81
2022/07/07 07:12:00;;;;;;;1.83;0.93;;;;;;;15.78;72.53;100219.53;10554391;28;20043;-82
2022/07/07 07:17:02;;;;;;;2.70;0.70;;;;;;;15.86;71.98;100220.84;10556877;28;20108;-80
2022/07/07 07:22:04;;;;;;;2.53;0.80;;;;;;;15.62;75.15;100220.25;10555212;28;20445;-80
2022/07/07 07:27:06;;;;;;;1.95;0.80;;;;;;;15.54;74.35;100216.28;10590954;28;20048;-79
2022/07/07 07:32:08;;;;;;;2.53;0.90;;;;;;;15.36;78.72;100215.34;10535213;28;20047;-79
2022/07/07 07:37:09;;;;;;;3.90;1.20;;;;;;;15.11;78.44;100203.31;10536910;28;20052;-80
2022/07/07 07:42:11;;;;;;;1.52;0.90;;;;;;;14.92;83.25;100205.13;10520645;28;20036;-80
2022/07/07 07:47:13;;;;;;;2.35;0.98;;;;;;;15.20;80.87;100214.41;10551460;28;20569;-79
2022/07/07 07:52:14;;;;;;;2.13;0.80;;;;;;;15.39;80.87;100212.56;10533615;28;20055;-80
2022/07/07 07:57:16;;;;;;;2.20;1.10;;;;;;;15.57;77.91;100216.09;10550193;28;20044;-80
2022/07/07 08:02:18;;;;;;;2.40;0.93;;;;;;;15.60;78.52;100206.22;10552843;28;20242;-79
2022/07/07 08:07:19;;;;;;;2.42;1.40;;;;;;;15.63;79.58;100205.22;10534967;28;20055;-80
2022/07/07 08:12:21;;;;;;;1.75;1.33;;;;;;;15.80;84.42;100199.09;10553691;28;20044;-80
2022/07/07 08:17:23;;;;;;;1.25;1.00;;;;;;;16.05;81.63;100198.69;10536016;28;20048;-80
2022/07/07 08:22:25;;;;;;;1.33;0.80;;;;;;;16.15;73.54;100190.16;10554605;28;20075;-80
2022/07/07 08:27:27;;;;;;;2.80;0.98;;;;;;;16.03;77.98;100179.38;10524045;28;20040;-80
2022/07/07 08:32:28;;;;;;;4.03;1.55;;;;;;;16.05;76.33;100170.38;10567530;28;20055;-80
2022/07/07 08:37:30;;;;;;;2.08;1.27;;;;;;;16.08;76.19;100170.22;10557778;28;20051;-80
2022/07/07 08:42:32;;;;;;;5.30;1.35;;;;;;;15.94;77.02;100158.63;10551758;28;20048;-80
2022/07/07 08:47:33;;;;;;;2.60;1.60;;;;;;;16.00;74.65;100160.97;10532811;28;20089;-80
2022/07/07 08:52:35;;;;;;;1.50;1.40;;;;;;;16.09;75.17;100157.84;10551474;28;20036;-80
2022/07/07 08:57:38;;;;;;;1.83;1.60;;;;;;;16.28;74.63;100150.59;10549920;28;20070;-80
2022/07/07 09:02:40;;;;;;;2.38;1.55;;;;;;;16.55;72.48;100145.59;10532837;28;20047;-79
2022/07/07 09:07:46;;;;;;;2.83;1.73;;;;;;;16.80;72.17;100144.28;10531985;28;20456;-79
2022/07/07 09:12:48;;;;;;;1.63;1.52;;;;;;;16.85;71.88;100148.41;10550099;28;20044;-80
2022/07/07 09:17:50;;;;;;;3.03;2.00;;;;;;;17.02;70.03;100152.75;10548563;28;20489;-79
2022/07/07 09:22:54;;;;;;;3.17;2.17;;;;;;;16.82;71.71;100153.91;10573434;28;20067;-79
2022/07/07 09:28:06;;;;;;;3.25;2.30;;;;;;;17.17;69.85;100161.66;10578866;28;20040;-80
2022/07/07 09:33:11;;;;;;;3.55;2.10;;;;;;;17.37;69.44;100156.06;10539074;28;20055;-78
2022/07/07 09:38:13;;;;;;;2.75;2.30;;;;;;;17.42;68.54;100160.25;10558831;28;20089;-79
2022/07/07 09:43:15;;;;;;;4.05;2.08;;;;;;;17.11;70.24;100165.53;10556550;28;20036;-80
2022/07/07 09:48:17;;;;;;;2.45;2.17;;;;;;;17.01;71.75;100169.66;10556959;28;20059;-79
2022/07/07 09:53:19;;;;;;;2.28;2.08;;;;;;;16.90;73.29;100169.38;10522351;28;20044;-79
2022/07/07 09:58:20;;;;;;;2.17;1.98;;;;;;;16.70;77.41;100183.72;10536778;28;20052;-79
2022/07/07 10:03:23;;;;;;;3.28;2.63;;;;;;;16.79;79.29;100180.59;10543740;28;20382;-79
2022/07/07 10:08:30;;;;;;;3.40;2.35;;;;;;;16.71;82.12;100182.78;10565446;28;20494;-79
2022/07/07 10:13:37;;;;;;;1.60;1.50;;;;;;;16.56;80.49;100179.19;10544325;28;20111;-79
2022/07/07 10:18:39;;;;;;;1.70;1.60;;;;;;;16.44;83.68;100169.22;10540748;28;20047;-79
2022/07/07 10:23:42;;;;;;;1.85;1.10;;;;;;;16.63;79.12;100164.63;10562588;28;20062;-78
2022/07/07 10:28:56;;;;;;;1.80;1.10;;;;;;;16.85;81.23;100166.97;10557940;28;20067;-79
2022/07/07 10:34:10;;;;;;;1.77;0.93;;;;;;;16.98;73.73;100153.03;10555981;28;20496;-79
2022/07/07 10:39:13;;;;;;;0.80;0.80;;;;;;;17.02;73.99;100159.88;10558219;28;20036;-78
2022/07/07 10:44:19;;;;;;;1.15;0.90;;;;;;;17.02;74.09;100163.38;10580823;28;20501;-79
2022/07/07 10:49:38;;;;;;;1.55;1.08;;;;;;;16.89;75.49;100162.34;10537686;28;20040;-79
2022/07/07 10:54:44;;;;;;;1.02;1.00;;;;;;;16.91;75.11;100155.19;10554912;28;20097;-78
2022/07/07 11:00:01;;;;;;;1.85;1.00;;;;;;;16.96;75.11;100165.53;10558282;28;20044;-79
2022/07/07 11:05:15;;;;;;;1.42;1.23;;;;;;;16.74;76.28;100161.41;10535610;28;20040;-79
2022/07/07 11:10:17;;;;;;;1.20;1.10;;;;;;;17.02;75.38;100158.06;10553706;28;20050;-79
2022/07/07 11:15:20;;;;;;;1.92;1.38;;;;;;;17.04;74.33;100161.47;10536704;28;20550;-79
2022/07/07 11:20:25;;;;;;;1.50;1.40;;;;;;;17.04;74.03;100158.81;10552654;28;20040;-79
2022/07/07 11:25:27;;;;;;;1.85;1.30;;;;;;;17.15;74.39;100158.25;10574163;28;20068;-79
2022/07/07 11:30:29;;;;;;;3.35;1.65;;;;;;;17.25;73.43;100153.25;10564935;28;20486;-79
2022/07/07 11:35:36;;;;;;;1.85;1.75;;;;;;;17.72;72.20;100152.28;10559592;28;20071;-79
2022/07/07 11:40:39;;;;;;;1.63;1.50;;;;;;;18.32;68.28;100150.38;10592283;28;20043;-78
2022/07/07 11:45:41;;;;;;;2.00;1.27;;;;;;;18.87;67.96;100144.28;10663171;22;20098;-68
2022/07/07 11:50:42;;;;;;;1.88;1.23;;;;;;;18.99;67.39;100147.97;10542217;28;20039;-69
2022/07/07 11:55:44;;;;;;;1.55;1.10;;;;;;;19.26;64.29;100139.13;10508197;28;20039;-69
2022/07/07 12:00:46;;;;;;;2.20;1.20;;;;;;;19.93;64.95;100139.94;10459875;28;20132;-68
2022/07/07 12:05:48;;;;;;;1.15;1.00;;;;;;;20.17;63.29;100140.88;10493525;28;20045;-68
2022/07/07 12:10:51;;;;;;;1.10;1.00;;;;;;;20.59;61.28;100144.19;10481212;28;20493;-68
2022/07/07 12:15:54;;;;;;;1.23;0.90;;;;;;;19.99;62.02;100147.50;10498926;28;20090;-69
2022/07/07 12:20:58;;;;;;;0.93;0.80;;;;;;;19.68;63.55;100143.41;10481118;28;20052;-68
2022/07/07 12:26:14;;;;;;;1.33;0.90;;;;;;;19.38;64.80;100159.63;10481860;28;20169;-68
2022/07/07 12:31:21;;;;;;;1.55;1.10;;;;;;;18.99;65.55;100160.41;10498661;28;20044;-67
2022/07/07 12:36:33;;;;;;;2.88;1.23;;;;;;;18.52;68.27;100154.47;10497861;28;20094;-67
2022/07/07 12:41:37;;;;;;;1.45;1.30;;;;;;;18.40;70.74;100153.44;10498789;28;20398;-68
2022/07/07 12:46:39;;;;;;;1.65;1.55;;;;;;;18.32;69.11;100160.16;10498390;28;20051;-67
2022/07/07 12:51:49;;;;;;;1.85;1.60;;;;;;;18.26;70.01;100165.88;10497806;28;20048;-68
2022/07/07 12:57:00;;;;;;;2.38;1.95;;;;;;;18.34;69.71;100163.63;10498752;28;20083;-69
2022/07/07 13:02:02;;;;;;;2.10;1.65;;;;;;;18.27;70.11;100156.94;10497800;28;20110;-68
2022/07/07 13:07:03;;;;;;;1.90;1.77;;;;;;;18.17;70.35;100158.47;10479566;28;20086;-69
2022/07/07 13:12:13;;;;;;;2.00;1.80;;;;;;;18.19;69.60;100165.38;10497010;28;20111;-69
2022/07/07 13:17:16;;;;;;;1.60;1.50;;;;;;;18.33;69.97;100165.41;10497310;28;20412;-69
2022/07/07 13:22:18;;;;;;;1.60;1.50;;;;;;;18.54;68.07;100165.88;10498544;28;20048;-69
2022/07/07 13:27:26;;;;;;;1.60;1.50;;;;;;;18.42;68.08;100169.31;10497934;28;20049;-69
2022/07/07 13:32:28;;;;;;;2.22;1.40;;;;;;;18.21;69.41;100165.31;10496731;28;20048;-69
2022/07/07 13:37:29;;;;;;;1.60;1.50;;;;;;;18.33;69.24;100169.91;10495816;28;20045;-67
2022/07/07 13:42:31;;;;;;;1.58;1.38;;;;;;;18.03;70.89;100175.28;10503560;28;20046;-67
2022/07/07 13:47:33;;;;;;;1.50;1.35;;;;;;;18.20;70.90;100177.75;10514321;28;20040;-68
2022/07/07 13:52:34;;;;;;;1.65;1.20;;;;;;;18.09;71.80;100185.53;10496507;28;20036;-68
2022/07/07 13:57:37;;;;;;;1.45;1.20;;;;;;;18.36;71.57;100172.34;10494751;28;20159;-68
2022/07/07 14:02:40;;;;;;;1.45;1.35;;;;;;;18.67;69.65;100174.78;10461745;28;20045;-68
2022/07/07 14:07:42;;;;;;;3.25;1.75;;;;;;;18.81;70.20;100178.44;10496326;28;20532;-68
2022/07/07 14:12:44;;;;;;;1.48;1.38;;;;;;;19.14;68.92;100173.59;10496658;28;20037;-68
2022/07/07 14:17:46;;;;;;;2.00;1.90;;;;;;;19.92;65.96;100164.88;10482851;28;20048;-70
2022/07/07 14:22:48;;;;;;;2.63;2.53;;;;;;;20.46;62.44;100162.03;10503307;28;20045;-69
2022/07/07 14:27:50;;;;;;;1.98;1.73;;;;;;;20.58;62.68;100157.63;10503440;28;20045;-69
2022/07/07 14:32:52;;;;;;;2.70;2.05;;;;;;;20.86;60.67;100152.03;10502856;28;20128;-69
2022/07/07 14:37:53;;;;;;;2.80;2.55;;;;;;;20.57;61.24;100156.78;10503424;28;20395;-68
2022/07/07 14:43:03;;;;;;;2.50;2.40;;;;;;;20.20;61.26;100149.66;10485911;28;20394;-69
2022/07/07 14:48:04;;;;;;;2.80;2.53;;;;;;;19.79;65.35;100156.00;10503730;28;20167;-69
2022/07/07 14:53:06;;;;;;;4.05;3.00;;;;;;;19.53;64.83;100149.75;10503048;28;20047;-68
2022/07/07 14:58:08;;;;;;;3.03;2.92;;;;;;;19.26;66.05;100142.66;10484394;28;20054;-69
2022/07/07 15:03:10;;;;;;;2.92;2.72;;;;;;;19.51;65.19;100141.84;10502880;28;20047;-70
2022/07/07 15:08:12;;;;;;;2.35;2.15;;;;;;;19.85;63.73;100124.44;10502460;28;20055;-70
2022/07/07 15:13:14;;;;;;;2.20;2.00;;;;;;;20.87;59.40;100123.50;10501659;28;20044;-70
2022/07/07 15:18:24;;;;;;;3.00;1.52;;;;;;;21.23;58.48;100122.59;10502324;28;20042;-69
2022/07/07 15:23:27;;;;;;;2.10;2.00;;;;;;;21.60;57.30;100128.75;10502876;28;20068;-68
2022/07/07 15:28:30;;;;;;;2.03;1.85;;;;;;;21.07;57.50;100132.69;10501976;28;20040;-67
2022/07/07 15:33:33;;;;;;;2.38;1.50;;;;;;;20.49;59.39;100128.94;10500479;28;20490;-67
2022/07/07 15:38:36;;;;;;;8.13;2.58;;;;;;;20.25;61.56;100131.50;10500775;28;20044;-66
2022/07/07 15:43:39;;;;;;;1.60;1.42;;;;;;;20.21;60.72;100135.34;10500027;28;20040;-68
2022/07/07 15:48:45;;;;;;;1.77;1.60;;;;;;;20.29;61.20;100131.16;10500693;28;20079;-68
2022/07/07 15:53:49;;;;;;;1.48;1.38;;;;;;;20.42;60.78;100137.34;10499840;28;20054;-68
2022/07/07 15:58:51;;;;;;;1.98;1.45;;;;;;;20.98;59.44;100133.38;10499254;28;20048;-68
2022/07/07 16:09:13;;;;;;;1.80;1.00;;;;;;;20.91;58.90;100133.00;10498886;28;20054;-68
2022/07/07 16:14:15;;;;;;;1.05;1.00;;;;;;;20.68;59.74;100134.66;10498679;28;20040;-69
2022/07/07 16:19:16;;;;;;;0.93;0.70;;;;;;;20.54;60.47;100129.44;10481006;28;20049;-68
2022/07/07 16:24:19;;;;;;;1.10;1.00;;;;;;;20.41;60.68;100126.78;10498246;28;20044;-67
2022/07/07 16:29:21;;;;;;;1.38;1.00;;;;;;;20.50;61.12;100125.31;10498710;28;20072;-69
2022/07/07 16:34:23;;;;;;;1.45;1.35;;;;;;;20.39;61.87;100126.88;10498380;28;20132;-70
2022/07/07 16:39:25;;;;;;;1.00;1.00;;;;;;;20.10;64.02;100130.75;10497178;28;20052;-68
2022/07/07 16:44:27;;;;;;;1.00;1.00;;;;;;;19.78;65.84;100143.63;10498415;28;20123;-70
2022/07/07 16:49:29;;;;;;;1.00;1.00;;;;;;;19.52;67.67;100143.56;10498693;28;20440;-70
2022/07/07 16:54:34;;;;;;;1.20;1.10;;;;;;;19.43;69.59;100138.84;10496883;28;20045;-68
2022/07/07 16:59:38;;;;;;;1.20;1.10;;;;;;;19.28;74.19;100143.38;10466121;28;20048;-70
2022/07/07 17:04:39;;;;;;;2.35;1.40;;;;;;;18.72;79.37;100157.72;10479740;28;20049;-67
2022/07/07 17:09:41;;;;;;;3.22;1.60;;;;;;;18.35;83.24;100158.19;10498737;28;20072;-69
2022/07/07 17:14:43;;;;;;;2.25;1.60;;;;;;;18.29;83.29;100149.75;10498112;28;20060;-68
2022/07/07 17:19:46;;;;;;;2.00;1.63;;;;;;;17.93;86.79;100148.38;10479563;28;20052;-68
2022/07/07 17:24:47;;;;;;;1.15;1.05;;;;;;;18.03;84.40;100162.81;10497867;28;20044;-70
2022/07/07 17:29:49;;;;;;;1.65;1.15;;;;;;;18.13;85.24;100163.97;10497326;28;20383;-68
2022/07/07 17:34:52;;;;;;;1.50;1.08;;;;;;;18.15;86.35;100172.72;10497848;28;20037;-69
2022/07/07 17:39:54;;;;;;;1.15;0.90;;;;;;;18.08;87.03;100171.38;10489628;28;20433;-70
2022/07/07 17:44:56;;;;;;;1.80;1.23;;;;;;;17.83;89.80;100179.97;10509997;22;20025;-75
2022/07/07 17:49:58;;;;;;;1.25;1.13;;;;;;;18.01;86.53;100170.03;10525983;28;20098;-76
2022/07/07 17:55:01;;;;;;;1.10;0.80;;;;;;;17.83;89.09;100177.31;10533890;28;20111;-76
2022/07/07 18:00:04;;;;;;;1.30;0.95;;;;;;;17.85;88.58;100178.09;10535733;28;20071;-76
2022/07/07 18:05:12;;;;;;;2.63;0.85;;;;;;;17.70;89.44;100181.59;10550543;28;20570;-75
2022/07/07 18:10:21;;;;;;;1.60;1.27;;;;;;;17.72;90.23;100186.84;10535612;28;20055;-76
2022/07/07 18:15:22;;;;;;;1.63;1.20;;;;;;;17.54;93.78;100194.94;10556492;28;20446;-79
2022/07/07 18:20:25;;;;;;;1.38;1.25;;;;;;;17.54;94.69;100194.09;10543177;28;20044;-79
2022/07/07 18:25:26;;;;;;;1.30;1.13;;;;;;;17.32;96.04;100195.31;10549881;28;20032;-78
2022/07/07 18:30:30;;;;;;;1.52;1.17;;;;;;;17.33;96.52;100201.50;10542346;28;20502;-79
2022/07/07 18:35:31;;;;;;;3.28;1.40;;;;;;;17.22;97.74;100215.41;10562645;28;20413;-79
2022/07/07 18:40:34;;;;;;;1.20;1.05;;;;;;;17.24;97.26;100218.81;10562067;28;20040;-79
2022/07/07 18:45:37;;;;;;;1.40;1.30;;;;;;;17.11;98.55;100229.25;10547490;28;20044;-79
2022/07/07 18:50:39;;;;;;;2.20;1.20;;;;;;;17.24;96.39;100232.09;10526625;28;20501;-78
2022/07/07 18:55:41;;;;;;;3.40;1.20;;;;;;;17.12;96.20;100240.75;10560727;28;20047;-78
2022/07/07 19:00:43;;;;;;;1.92;1.48;;;;;;;17.11;96.92;100247.84;10560449;28;20054;-78
2022/07/07 19:05:45;;;;;;;2.35;1.50;;;;;;;17.04;99.51;100251.78;10555075;28;20044;-80
2022/07/07 19:10:47;;;;;;;2.40;1.42;;;;;;;17.02;99.82;100259.00;10541326;28;20036;-78
2022/07/07 19:15:49;;;;;;;3.15;2.00;;;;;;;16.94;100.00;100265.66;10551899;28;20104;-78
2022/07/07 19:20:50;;;;;;;2.03;1.60;;;;;;;16.87;100.00;100270.47;10552324;28;20039;-77
2022/07/07 19:25:52;;;;;;;2.97;2.00;;;;;;;16.92;100.00;100275.53;10534429;28;20390;-78
2022/07/07 19:30:54;;;;;;;2.40;1.63;;;;;;;16.92;100.00;100294.09;10529931;28;20051;-78
2022/07/07 19:35:56;;;;;;;2.50;2.03;;;;;;;16.82;100.00;100288.41;10550299;28;20494;-79
2022/07/07 19:40:58;;;;;;;2.33;2.10;;;;;;;16.75;100.00;100310.94;10534724;28;20035;-78
2022/07/07 19:45:59;;;;;;;2.28;2.08;;;;;;;16.73;100.00;100320.75;10535167;28;20044;-76
2022/07/07 19:51:02;;;;;;;3.70;2.65;;;;;;;16.64;100.00;100322.94;10556794;28;20493;-78
2022/07/07 19:56:05;;;;;;;3.83;3.00;;;;;;;16.65;100.00;100329.09;10521569;28;20397;-78
2022/07/07 20:01:06;;;;;;;6.10;2.42;;;;;;;16.60;100.00;100347.03;10555045;28;20044;-78
2022/07/07 20:06:08;;;;;;;2.35;1.60;;;;;;;16.51;99.14;100352.81;10555814;28;20093;-80
2022/07/07 20:11:11;;;;;;;4.82;1.52;;;;;;;16.00;98.93;100376.59;10554455;28;20039;-80
2022/07/07 20:16:13;;;;;;;4.35;1.75;;;;;;;15.71;99.48;100393.88;10544101;28;20044;-79
2022/07/07 20:21:21;;;;;;;5.47;1.58;;;;;;;15.63;98.83;100396.88;10548910;28;20055;-77
2022/07/07 20:26:26;;;;;;;4.72;1.80;;;;;;;15.30;98.45;100409.00;10564591;28;20052;-76
2022/07/07 20:31:31;;;;;;;4.05;1.75;;;;;;;15.34;97.89;100414.09;10531031;28;20130;-74
2022/07/07 20:36:33;;;;;;;4.45;1.48;;;;;;;15.31;95.62;100422.16;10550995;28;20082;-74
2022/07/07 20:41:34;;;;;;;5.15;2.33;;;;;;;15.33;94.33;100440.66;10526562;28;20052;-74
2022/07/07 20:46:36;;;;;;;5.88;2.33;;;;;;;15.19;93.70;100445.72;10526767;28;20044;-75
2022/07/07 20:51:38;;;;;;;5.95;2.20;;;;;;;15.05;94.62;100456.88;10543790;28;20124;-75
2022/07/07 20:56:40;;;;;;;4.70;2.25;;;;;;;14.97;95.49;100472.28;10528158;28;20074;-74
2022/07/07 21:01:42;;;;;;;6.05;2.20;;;;;;;14.88;96.17;100477.03;10526030;28;20139;-74
2022/07/07 21:06:44;;;;;;;6.60;1.90;;;;;;;14.82;95.38;100487.84;10524501;28;20072;-75
2022/07/07 21:11:45;;;;;;;4.93;1.95;;;;;;;14.74;97.06;100503.22;10526299;28;20084;-73
2022/07/07 21:16:48;;;;;;;5.75;2.15;;;;;;;14.75;95.19;100514.66;10543767;28;20047;-74
2022/07/07 21:21:50;;;;;;;8.93;2.65;;;;;;;14.84;93.77;100523.06;10530820;28;20505;-75
2022/07/07 21:26:51;;;;;;;6.93;1.98;;;;;;;14.79;93.34;100525.06;10527844;28;20405;-74
2022/07/07 21:31:53;;;;;;;6.22;2.50;;;;;;;14.76;94.17;100543.69;10550429;28;20123;-74
2022/07/07 21:36:55;;;;;;;9.07;2.85;;;;;;;14.90;92.48;100545.78;10531921;28;20507;-75
2022/07/07 21:41:57;;;;;;;7.80;2.95;;;;;;;14.86;93.26;100547.69;10536130;28;20072;-74
2022/07/07 21:46:59;;;;;;;9.48;2.30;;;;;;;15.03;89.16;100562.88;10550495;28;20063;-76
2022/07/07 21:52:04;;;;;;;11.93;2.80;;;;;;;14.88;90.81;100572.31;10531277;28;20531;-75
2022/07/07 21:57:05;;;;;;;12.27;2.85;;;;;;;14.81;90.24;100575.25;10549341;28;20114;-75
2022/07/07 22:02:07;;;;;;;13.38;2.53;;;;;;;14.89;89.16;100581.97;10550617;28;20090;-75
2022/07/07 22:07:09;;;;;;;7.47;2.38;;;;;;;14.79;89.94;100593.00;10533578;28;20072;-75
2022/07/07 22:12:13;;;;;;;13.85;2.38;;;;;;;15.09;86.21;100590.88;10532542;28;20123;-75
2022/07/07 22:17:20;;;;;;;9.82;2.33;;;;;;;14.89;87.55;100597.84;10549428;28;20115;-75
2022/07/07 22:22:22;;;;;;;7.75;2.13;;;;;;;14.74;86.38;100613.47;10548946;28;20052;-74
2022/07/07 22:27:24;;;;;;;15.93;2.58;;;;;;;14.80;84.90;100622.03;10534566;28;20086;-75
2022/07/07 22:32:25;;;;;;;14.07;2.70;;;;;;;14.88;83.32;100627.03;10529961;28;20383;-74
2022/07/07 22:37:27;;;;;;;7.88;2.10;;;;;;;14.66;84.58;100632.31;10547503;28;20050;-75
2022/07/07 22:42:29;;;;;;;10.13;1.92;;;;;;;14.74;83.19;100637.28;10529395;28;20494;-75
2022/07/07 22:47:39;;;;;;;11.65;2.65;;;;;;;14.81;81.05;100647.59;10532103;28;20485;-75
2022/07/07 22:52:40;;;;;;;10.80;2.53;;;;;;;14.57;82.88;100656.50;10528838;28;20052;-75
2022/07/07 22:57:42;;;;;;;10.93;2.47;;;;;;;14.57;82.40;100662.66;10528469;28;20048;-76
2022/07/07 23:02:44;;;;;;;12.15;2.40;;;;;;;14.57;82.41;100670.56;10545837;28;20424;-75
2022/07/07 23:07:45;;;;;;;9.45;2.00;;;;;;;14.49;82.17;100667.34;10530989;28;20055;-75
2022/07/07 23:12:47;;;;;;;18.35;2.08;;;;;;;14.49;82.19;100679.72;10546399;28;20131;-74
2022/07/07 23:17:49;;;;;;;9.27;2.08;;;;;;;14.61;80.21;100685.41;10546350;28;20559;-77